createdAt,value
2018-07-15T00:00:24.860Z,26.73
2018-07-15T00:01:24.728Z,26.78
2018-07-15T00:02:24.727Z,26.75
2018-07-15T00:03:24.704Z,26.72
2018-07-15T00:04:24.702Z,26.69
2018-07-15T00:05:24.804Z,26.72
2018-07-15T00:06:24.691Z,26.76
2018-07-15T00:07:24.666Z,26.72
2018-07-15T00:08:24.658Z,26.66
2018-07-15T00:09:24.645Z,26.73
2018-07-15T00:10:24.653Z,26.75
2018-07-15T00:11:24.700Z,26.72
2018-07-15T00:12:24.622Z,26.73
2018-07-15T00:13:24.616Z,26.71
2018-07-15T00:14:24.602Z,26.64
2018-07-15T00:15:24.646Z,26.65
2018-07-15T00:16:24.577Z,26.72
2018-07-15T00:17:24.674Z,26.65
2018-07-15T00:18:24.548Z,26.71
2018-07-15T00:19:24.543Z,26.69
2018-07-15T00:20:24.562Z,26.72
2018-07-15T00:21:24.526Z,26.59
2018-07-15T00:22:24.505Z,26.64
2018-07-15T00:23:24.524Z,26.69
2018-07-15T00:24:24.492Z,26.68
2018-07-15T00:25:24.479Z,26.61
2018-07-15T00:26:24.463Z,26.60
2018-07-15T00:27:24.469Z,26.66
2018-07-15T00:28:24.441Z,26.60
2018-07-15T00:29:24.437Z,26.60
2018-07-15T00:30:24.421Z,26.59
2018-07-15T00:31:24.425Z,26.57
2018-07-15T00:32:23.481Z,26.57
2018-07-15T00:33:24.396Z,26.54
2018-07-15T00:35:33.547Z,26.61
2018-07-15T00:36:34.554Z,26.59
2018-07-15T00:37:34.545Z,26.53
2018-07-15T00:38:33.645Z,26.57
2018-07-15T00:39:34.499Z,26.61
2018-07-15T00:40:34.487Z,26.53
2018-07-15T00:41:34.517Z,26.57
2018-07-15T00:42:33.483Z,26.56
2018-07-15T00:43:34.477Z,26.57
2018-07-15T00:44:34.493Z,26.47
2018-07-15T00:45:34.456Z,26.46
2018-07-15T00:46:34.436Z,26.54
2018-07-15T00:47:34.415Z,26.61
2018-07-15T00:48:34.495Z,26.53
2018-07-15T00:49:33.404Z,26.54
2018-07-15T00:50:34.380Z,26.57
2018-07-15T00:51:34.379Z,26.51
2018-07-15T00:52:34.378Z,26.44
2018-07-15T00:53:34.352Z,26.46
2018-07-15T00:54:34.343Z,26.50
2018-07-15T00:55:34.327Z,26.50
2018-07-15T00:56:34.332Z,26.53
2018-07-15T00:57:33.307Z,26.46
2018-07-15T00:58:34.375Z,26.47
2018-07-15T00:59:34.285Z,26.51
2018-07-15T01:00:34.298Z,26.51
2018-07-15T01:01:34.288Z,26.42
2018-07-15T01:02:34.267Z,26.50
2018-07-15T01:03:34.249Z,26.54
2018-07-15T01:04:34.247Z,26.50
2018-07-15T01:05:34.222Z,26.53
2018-07-15T01:06:34.336Z,26.50
2018-07-15T01:07:33.200Z,26.57
2018-07-15T01:08:34.186Z,26.36
2018-07-15T01:09:34.189Z,26.57
2018-07-15T01:10:34.177Z,26.47
2018-07-15T01:11:34.172Z,26.53
2018-07-15T01:12:34.159Z,26.50
2018-07-15T01:13:33.150Z,26.39
2018-07-15T01:14:34.125Z,26.54
2018-07-15T01:15:34.110Z,26.42
2018-07-15T01:16:34.115Z,26.42
2018-07-15T01:17:34.113Z,26.46
2018-07-15T01:18:34.088Z,26.47
2018-07-15T01:19:34.083Z,26.46
2018-07-15T01:20:34.076Z,26.41
2018-07-15T01:21:34.071Z,26.46
2018-07-15T01:22:33.054Z,26.39
2018-07-15T01:23:34.023Z,26.41
2018-07-15T01:24:34.041Z,26.46
2018-07-15T01:25:34.009Z,26.49
2018-07-15T01:26:34.109Z,26.44
2018-07-15T01:27:34.000Z,26.46
2018-07-15T01:28:33.971Z,26.47
2018-07-15T01:29:33.964Z,26.44
2018-07-15T01:30:33.970Z,26.36
2018-07-15T01:31:33.954Z,26.44
2018-07-15T01:32:32.932Z,26.38
2018-07-15T01:33:34.053Z,26.35
2018-07-15T01:34:33.923Z,26.38
2018-07-15T01:35:33.990Z,26.34
2018-07-15T01:36:33.883Z,26.35
2018-07-15T01:37:33.887Z,26.39
2018-07-15T01:38:32.961Z,26.32
2018-07-15T01:39:33.882Z,26.42
2018-07-15T01:40:33.843Z,26.39
2018-07-15T01:41:33.867Z,26.34
2018-07-15T01:42:33.835Z,26.39
2018-07-15T01:43:33.831Z,26.35
2018-07-15T01:44:33.908Z,26.35
2018-07-15T01:45:33.790Z,26.42
2018-07-15T01:46:33.779Z,26.39
2018-07-15T01:47:33.768Z,26.39
2018-07-15T01:48:33.762Z,26.34
2018-07-15T01:49:33.778Z,26.36
2018-07-15T01:50:32.844Z,26.31
2018-07-15T01:51:33.723Z,26.36
2018-07-15T01:52:33.741Z,26.34
2018-07-15T01:53:33.701Z,26.42
2018-07-15T01:54:33.720Z,26.34
2018-07-15T01:55:33.699Z,26.34
2018-07-15T01:56:33.685Z,26.36
2018-07-15T01:57:32.782Z,26.31
2018-07-15T01:58:33.730Z,26.23
2018-07-15T01:59:33.652Z,26.32
2018-07-15T02:00:33.781Z,26.34
2018-07-15T02:01:32.626Z,26.31
2018-07-15T02:02:33.612Z,26.35
2018-07-15T02:03:33.595Z,26.21
2018-07-15T02:04:33.613Z,26.28
2018-07-15T02:05:33.592Z,26.27
2018-07-15T02:06:33.679Z,26.29
2018-07-15T02:07:32.556Z,26.32
2018-07-15T02:08:33.607Z,26.29
2018-07-15T02:09:33.564Z,26.28
2018-07-15T02:10:33.537Z,26.31
2018-07-15T02:11:32.510Z,26.34
2018-07-15T02:12:33.573Z,26.32
2018-07-15T02:13:33.608Z,26.17
2018-07-15T02:14:33.596Z,26.16
2018-07-15T02:15:33.482Z,26.13
2018-07-15T02:16:33.474Z,26.20
2018-07-15T02:17:33.459Z,26.20
2018-07-15T02:18:33.451Z,26.20
2018-07-15T02:19:33.438Z,26.17
2018-07-15T02:20:33.415Z,26.23
2018-07-15T02:21:32.409Z,26.19
2018-07-15T02:22:33.396Z,26.13
2018-07-15T02:23:33.385Z,26.19
2018-07-15T02:24:33.392Z,26.19
2018-07-15T02:25:33.366Z,26.12
2018-07-15T02:26:33.447Z,26.17
2018-07-15T02:27:33.348Z,26.21
2018-07-15T02:28:33.347Z,26.17
2018-07-15T02:29:33.332Z,26.13
2018-07-15T02:30:32.325Z,26.16
2018-07-15T02:31:33.294Z,26.13
2018-07-15T02:32:33.292Z,26.11
2018-07-15T02:33:33.275Z,26.12
2018-07-15T02:34:33.289Z,26.08
2018-07-15T02:35:33.326Z,26.04
2018-07-15T02:36:33.272Z,26.09
2018-07-15T02:37:33.290Z,26.11
2018-07-15T02:38:33.220Z,26.12
2018-07-15T02:39:33.240Z,26.04
2018-07-15T02:40:33.199Z,26.04
2018-07-15T02:41:33.187Z,26.04
2018-07-15T02:42:33.193Z,26.03
2018-07-15T02:43:33.173Z,26.04
2018-07-15T02:44:33.168Z,26.00
2018-07-15T02:45:33.287Z,26.08
2018-07-15T02:46:33.178Z,26.13
2018-07-15T02:47:33.182Z,26.03
2018-07-15T02:48:32.144Z,26.01
2018-07-15T02:49:33.117Z,26.03
2018-07-15T02:50:33.107Z,26.03
2018-07-15T02:51:33.095Z,26.03
2018-07-15T02:52:32.068Z,26.06
2018-07-15T02:53:33.063Z,26.03
2018-07-15T02:54:33.049Z,26.03
2018-07-15T02:55:33.066Z,26.06
2018-07-15T02:56:33.175Z,26.08
2018-07-15T02:57:33.019Z,26.03
2018-07-15T02:58:33.033Z,26.04
2018-07-15T02:59:33.020Z,26.04
2018-07-15T03:00:33.003Z,25.96
2018-07-15T03:01:31.973Z,25.97
2018-07-15T03:02:32.963Z,25.94
2018-07-15T03:03:32.951Z,26.00
2018-07-15T03:04:33.003Z,26.00
2018-07-15T03:05:32.945Z,25.93
2018-07-15T03:06:33.149Z,25.97
2018-07-15T03:07:32.908Z,25.94
2018-07-15T03:08:32.907Z,25.96
2018-07-15T03:09:34.323Z,25.94
2018-07-15T03:10:32.896Z,25.97
2018-07-15T03:11:32.881Z,25.91
2018-07-15T03:12:31.874Z,25.89
2018-07-15T03:13:32.847Z,25.91
2018-07-15T03:14:32.835Z,25.94
2018-07-15T03:15:32.846Z,25.94
2018-07-15T03:16:32.828Z,25.91
2018-07-15T03:17:32.816Z,25.96
2018-07-15T03:18:32.808Z,25.98
2018-07-15T03:19:32.900Z,25.91
2018-07-15T03:20:32.784Z,25.93
2018-07-15T03:21:32.766Z,25.90
2018-07-15T03:22:32.759Z,25.86
2018-07-15T03:23:32.743Z,25.76
2018-07-15T03:24:32.745Z,25.85
2018-07-15T03:25:32.732Z,25.83
2018-07-15T03:26:32.708Z,25.89
2018-07-15T03:27:32.694Z,25.86
2018-07-15T03:28:31.682Z,25.86
2018-07-15T03:29:32.680Z,25.85
2018-07-15T03:30:32.667Z,25.89
2018-07-15T03:31:32.662Z,25.86
2018-07-15T03:32:31.784Z,25.86
2018-07-15T03:33:32.634Z,25.85
2018-07-15T03:34:32.619Z,25.83
2018-07-15T03:35:32.688Z,25.85
2018-07-15T03:36:31.613Z,25.76
2018-07-15T03:37:32.651Z,25.86
2018-07-15T03:38:32.605Z,25.81
2018-07-15T03:39:31.566Z,25.69
2018-07-15T03:40:32.564Z,25.79
2018-07-15T03:41:32.567Z,25.79
2018-07-15T03:42:32.550Z,25.76
2018-07-15T03:43:31.527Z,25.74
2018-07-15T03:44:32.545Z,25.74
2018-07-15T03:45:32.499Z,25.75
2018-07-15T03:46:31.487Z,25.72
2018-07-15T03:47:32.507Z,25.74
2018-07-15T03:48:32.469Z,25.75
2018-07-15T03:49:32.458Z,25.72
2018-07-15T03:50:32.475Z,25.76
2018-07-15T03:51:32.446Z,25.67
2018-07-15T03:52:32.494Z,25.74
2018-07-15T03:53:32.418Z,25.75
2018-07-15T03:54:32.415Z,25.71
2018-07-15T03:55:31.392Z,25.72
2018-07-15T03:56:32.390Z,25.72
2018-07-15T03:57:32.420Z,25.75
2018-07-15T03:58:32.362Z,25.71
2018-07-15T03:59:31.348Z,25.75
2018-07-15T04:00:32.339Z,25.76
2018-07-15T04:01:32.445Z,25.78
2018-07-15T04:02:32.340Z,25.72
2018-07-15T04:03:32.743Z,25.78
2018-07-15T04:04:32.302Z,25.72
2018-07-15T04:05:32.288Z,25.72
2018-07-15T04:06:32.314Z,25.69
2018-07-15T04:07:31.408Z,25.72
2018-07-15T04:08:32.302Z,25.74
2018-07-15T04:09:32.240Z,25.67
2018-07-15T04:10:32.230Z,25.74
2018-07-15T04:11:31.231Z,25.71
2018-07-15T04:12:32.227Z,25.72
2018-07-15T04:13:32.221Z,25.63
2018-07-15T04:14:32.205Z,25.78
2018-07-15T04:15:32.179Z,25.66
2018-07-15T04:16:32.186Z,25.71
2018-07-15T04:17:32.157Z,25.60
2018-07-15T04:18:32.160Z,25.69
2018-07-15T04:19:32.146Z,25.59
2018-07-15T04:20:32.129Z,25.60
2018-07-15T04:21:32.122Z,25.60
2018-07-15T04:22:32.116Z,25.63
2018-07-15T04:23:32.106Z,25.61
2018-07-15T04:24:32.093Z,25.71
2018-07-15T04:25:31.069Z,25.63
2018-07-15T04:26:32.069Z,25.60
2018-07-15T04:27:32.071Z,25.59
2018-07-15T04:28:31.047Z,25.59
2018-07-15T04:29:32.042Z,25.63
2018-07-15T04:30:32.107Z,25.63
2018-07-15T04:31:31.074Z,25.60
2018-07-15T04:32:32.024Z,25.74
2018-07-15T04:33:31.984Z,25.59
2018-07-15T04:34:32.107Z,25.60
2018-07-15T04:35:31.965Z,25.60
2018-07-15T04:36:32.007Z,25.61
2018-07-15T04:37:31.943Z,25.61
2018-07-15T04:38:31.940Z,25.59
2018-07-15T04:39:31.949Z,25.57
2018-07-15T04:40:31.943Z,25.60
2018-07-15T04:41:31.901Z,25.57
2018-07-15T04:42:31.899Z,25.60
2018-07-15T04:43:32.007Z,25.71
2018-07-15T04:44:31.891Z,25.61
2018-07-15T04:45:31.861Z,25.60
2018-07-15T04:46:31.851Z,25.60
2018-07-15T04:47:31.968Z,25.61
2018-07-15T04:48:31.943Z,25.60
2018-07-15T04:49:31.840Z,25.59
2018-07-15T04:50:31.807Z,25.59
2018-07-15T04:51:31.901Z,25.61
2018-07-15T04:52:31.777Z,25.61
2018-07-15T04:53:30.772Z,25.56
2018-07-15T04:54:31.778Z,25.57
2018-07-15T04:55:31.803Z,25.60
2018-07-15T04:56:31.767Z,25.60
2018-07-15T04:57:31.738Z,25.60
2018-07-15T04:58:31.720Z,25.60
2018-07-15T04:59:31.732Z,25.57
2018-07-15T05:00:31.696Z,25.59
2018-07-15T05:01:31.680Z,25.60
2018-07-15T05:02:31.675Z,25.59
2018-07-15T05:03:31.663Z,25.59
2018-07-15T05:04:31.719Z,25.56
2018-07-15T05:05:31.658Z,25.60
2018-07-15T05:06:31.634Z,25.57
2018-07-15T05:07:31.618Z,25.60
2018-07-15T05:08:31.619Z,25.59
2018-07-15T05:09:30.600Z,25.56
2018-07-15T05:10:31.610Z,25.63
2018-07-15T05:11:31.580Z,25.61
2018-07-15T05:12:31.568Z,25.61
2018-07-15T05:13:31.551Z,25.59
2018-07-15T05:14:31.556Z,25.59
2018-07-15T05:15:31.555Z,25.61
2018-07-15T05:16:30.580Z,25.57
2018-07-15T05:17:31.515Z,25.57
2018-07-15T05:18:31.557Z,25.57
2018-07-15T05:19:31.486Z,25.61
2018-07-15T05:20:31.494Z,25.59
2018-07-15T05:21:31.485Z,25.60
2018-07-15T05:22:30.455Z,25.61
2018-07-15T05:23:31.445Z,25.60
2018-07-15T05:24:31.493Z,25.60
2018-07-15T05:25:31.440Z,25.63
2018-07-15T05:26:31.473Z,25.60
2018-07-15T05:27:31.515Z,25.60
2018-07-15T05:28:31.506Z,25.56
2018-07-15T05:29:31.392Z,25.63
2018-07-15T05:30:30.375Z,25.63
2018-07-15T05:31:31.393Z,25.60
2018-07-15T05:32:31.346Z,25.57
2018-07-15T05:33:31.447Z,25.66
2018-07-15T05:34:31.353Z,25.56
2018-07-15T05:35:31.325Z,25.59
2018-07-15T05:36:31.325Z,25.61
2018-07-15T05:37:31.313Z,25.57
2018-07-15T05:38:31.287Z,25.57
2018-07-15T05:39:31.271Z,25.64
2018-07-15T05:40:31.280Z,25.63
2018-07-15T05:41:31.273Z,25.59
2018-07-15T05:42:31.247Z,25.60
2018-07-15T05:43:31.243Z,25.56
2018-07-15T05:44:31.230Z,25.57
2018-07-15T05:45:31.210Z,25.66
2018-07-15T05:46:31.234Z,25.56
2018-07-15T05:47:31.187Z,25.60
2018-07-15T05:48:31.196Z,25.63
2018-07-15T05:49:30.177Z,25.61
2018-07-15T05:50:31.180Z,25.60
2018-07-15T05:51:31.174Z,25.60
2018-07-15T05:52:31.165Z,25.60
2018-07-15T05:53:31.124Z,25.64
2018-07-15T05:54:31.231Z,25.60
2018-07-15T05:55:31.110Z,25.60
2018-07-15T05:56:31.142Z,25.63
2018-07-15T05:57:31.094Z,25.60
2018-07-15T05:58:31.067Z,25.59
2018-07-15T05:59:31.062Z,25.60
2018-07-15T06:00:31.050Z,25.66
2018-07-15T06:01:31.117Z,25.60
2018-07-15T06:02:31.073Z,25.59
2018-07-15T06:03:31.099Z,25.60
2018-07-15T06:04:31.017Z,25.57
2018-07-15T06:05:30.995Z,25.61
2018-07-15T06:06:31.113Z,25.56
2018-07-15T06:07:31.139Z,25.56
2018-07-15T06:08:30.981Z,25.61
2018-07-15T06:09:30.967Z,25.59
2018-07-15T06:10:30.945Z,25.60
2018-07-15T06:11:30.929Z,25.56
2018-07-15T06:12:30.930Z,25.66
2018-07-15T06:13:30.907Z,25.64
2018-07-15T06:14:30.901Z,25.56
2018-07-15T06:15:30.904Z,25.57
2018-07-15T06:16:30.892Z,25.66
2018-07-15T06:17:30.997Z,25.64
2018-07-15T06:18:30.854Z,25.59
2018-07-15T06:19:30.848Z,25.60
2018-07-15T06:20:30.857Z,25.64
2018-07-15T06:21:30.831Z,25.61
2018-07-15T06:22:31.465Z,25.56
2018-07-15T06:23:30.799Z,25.63
2018-07-15T06:24:30.795Z,25.60
2018-07-15T06:25:30.780Z,25.66
2018-07-15T06:26:30.867Z,25.59
2018-07-15T06:27:30.784Z,25.66
2018-07-15T06:28:29.757Z,25.57
2018-07-15T06:29:30.831Z,25.64
2018-07-15T06:30:30.841Z,25.59
2018-07-15T06:31:30.723Z,25.57
2018-07-15T06:32:30.726Z,25.59
2018-07-15T06:33:30.814Z,25.63
2018-07-15T06:34:30.686Z,25.63
2018-07-15T06:35:30.779Z,25.56
2018-07-15T06:36:29.788Z,25.60
2018-07-15T06:37:30.668Z,25.60
2018-07-15T06:38:30.644Z,25.63
2018-07-15T06:39:30.642Z,25.67
2018-07-15T06:40:30.753Z,25.60
2018-07-15T06:41:30.609Z,25.60
2018-07-15T06:42:30.630Z,25.61
2018-07-15T06:43:29.599Z,25.60
2018-07-15T06:44:30.588Z,25.61
2018-07-15T06:45:30.561Z,25.63
2018-07-15T06:46:29.555Z,25.60
2018-07-15T06:47:30.698Z,25.59
2018-07-15T06:48:30.659Z,25.59
2018-07-15T06:49:30.520Z,25.60
2018-07-15T06:50:30.521Z,25.59
2018-07-15T06:51:29.519Z,25.60
2018-07-15T06:52:30.527Z,25.59
2018-07-15T06:53:30.584Z,25.60
2018-07-15T06:54:30.590Z,25.60
2018-07-15T06:55:30.476Z,25.61
2018-07-15T06:56:30.465Z,25.59
2018-07-15T06:57:30.446Z,25.63
2018-07-15T06:58:29.533Z,25.60
2018-07-15T06:59:30.428Z,25.60
2018-07-15T07:00:30.404Z,25.57
2018-07-15T07:01:30.440Z,25.57
2018-07-15T07:02:30.405Z,25.60
2018-07-15T07:03:30.386Z,25.57
2018-07-15T07:04:30.371Z,25.61
2018-07-15T07:05:29.368Z,25.61
2018-07-15T07:06:30.343Z,25.60
2018-07-15T07:07:30.370Z,25.61
2018-07-15T07:08:30.323Z,25.61
2018-07-15T07:09:30.309Z,25.56
2018-07-15T07:10:30.306Z,25.60
2018-07-15T07:11:30.300Z,25.57
2018-07-15T07:12:29.275Z,25.57
2018-07-15T07:13:30.285Z,25.61
2018-07-15T07:14:30.303Z,25.57
2018-07-15T07:15:29.241Z,25.59
2018-07-15T07:16:30.233Z,25.59
2018-07-15T07:17:30.346Z,25.54
2018-07-15T07:18:30.226Z,25.64
2018-07-15T07:19:30.213Z,25.61
2018-07-15T07:20:30.195Z,25.60
2018-07-15T07:21:30.179Z,25.60
2018-07-15T07:22:30.179Z,25.61
2018-07-15T07:23:29.165Z,25.60
2018-07-15T07:24:30.171Z,25.60
2018-07-15T07:25:30.262Z,25.63
2018-07-15T07:26:30.122Z,25.69
2018-07-15T07:27:29.223Z,25.60
2018-07-15T07:28:30.183Z,25.59
2018-07-15T07:29:30.119Z,25.57
2018-07-15T07:30:29.087Z,25.57
2018-07-15T07:31:30.076Z,25.67
2018-07-15T07:32:30.117Z,25.64
2018-07-15T07:33:30.045Z,25.64
2018-07-15T07:34:30.127Z,25.64
2018-07-15T07:35:30.279Z,25.60
2018-07-15T07:36:29.012Z,25.67
2018-07-15T07:37:30.145Z,25.63
2018-07-15T07:38:30.262Z,25.67
2018-07-15T07:39:29.005Z,25.71
2018-07-15T07:40:29.996Z,25.69
2018-07-15T07:41:30.074Z,25.63
2018-07-15T07:42:29.950Z,25.63
2018-07-15T07:43:30.017Z,25.63
2018-07-15T07:44:29.932Z,25.71
2018-07-15T07:45:29.995Z,25.71
2018-07-15T07:46:29.911Z,25.64
2018-07-15T07:47:29.913Z,25.69
2018-07-15T07:48:29.899Z,25.71
2018-07-15T07:49:29.983Z,25.74
2018-07-15T07:50:29.872Z,25.71
2018-07-15T07:51:29.911Z,25.71
2018-07-15T07:52:29.847Z,25.72
2018-07-15T07:53:29.848Z,25.69
2018-07-15T07:54:29.824Z,25.74
2018-07-15T07:55:29.821Z,25.63
2018-07-15T07:56:29.946Z,25.74
2018-07-15T07:57:29.860Z,25.71
2018-07-15T07:58:29.873Z,25.75
2018-07-15T07:59:28.856Z,25.67
2018-07-15T08:00:29.790Z,25.74
2018-07-15T08:01:29.765Z,25.74
2018-07-15T08:02:29.866Z,25.66
2018-07-15T08:03:29.737Z,25.74
2018-07-15T08:04:29.788Z,25.72
2018-07-15T08:05:29.725Z,25.74
2018-07-15T08:06:29.811Z,25.74
2018-07-15T08:07:29.697Z,25.67
2018-07-15T08:08:29.683Z,25.67
2018-07-15T08:09:29.748Z,25.75
2018-07-15T08:10:29.660Z,25.72
2018-07-15T08:11:29.669Z,25.69
2018-07-15T08:12:29.736Z,25.69
2018-07-15T08:13:29.630Z,25.71
2018-07-15T08:14:29.616Z,25.71
2018-07-15T08:15:29.607Z,25.74
2018-07-15T08:16:29.605Z,25.74
2018-07-15T08:17:30.358Z,25.75
2018-07-15T08:18:29.576Z,25.72
2018-07-15T08:19:29.557Z,25.72
2018-07-15T08:20:30.162Z,25.75
2018-07-15T08:21:29.530Z,25.75
2018-07-15T08:22:29.586Z,25.72
2018-07-15T08:23:29.625Z,25.79
2018-07-15T08:24:30.278Z,25.72
2018-07-15T08:25:29.592Z,25.69
2018-07-15T08:26:29.476Z,25.76
2018-07-15T08:27:29.578Z,25.75
2018-07-15T08:28:29.750Z,25.75
2018-07-15T08:29:28.450Z,25.67
2018-07-15T08:30:29.539Z,25.69
2018-07-15T08:31:29.445Z,25.78
2018-07-15T08:32:29.579Z,25.74
2018-07-15T08:33:29.409Z,25.75
2018-07-15T08:34:29.389Z,25.76
2018-07-15T08:35:29.396Z,25.74
2018-07-15T08:36:29.434Z,25.83
2018-07-15T08:37:29.513Z,25.75
2018-07-15T08:38:29.368Z,25.76
2018-07-15T08:39:29.340Z,25.79
2018-07-15T08:40:29.349Z,25.82
2018-07-15T08:41:29.443Z,25.85
2018-07-15T08:42:29.358Z,25.82
2018-07-15T08:43:29.313Z,25.78
2018-07-15T08:44:29.280Z,25.85
2018-07-15T08:45:29.625Z,25.81
2018-07-15T08:46:29.266Z,25.81
2018-07-15T08:47:29.275Z,25.89
2018-07-15T08:48:29.237Z,25.82
2018-07-15T08:49:29.250Z,25.78
2018-07-15T08:50:28.236Z,25.85
2018-07-15T08:51:29.340Z,25.82
2018-07-15T08:52:29.195Z,25.89
2018-07-15T08:53:29.200Z,25.85
2018-07-15T08:54:28.182Z,25.86
2018-07-15T08:55:29.731Z,25.83
2018-07-15T08:56:29.162Z,25.83
2018-07-15T08:57:29.159Z,25.86
2018-07-15T08:58:29.135Z,25.82
2018-07-15T08:59:29.137Z,25.81
2018-07-15T09:00:29.220Z,25.86
2018-07-15T09:01:29.243Z,25.81
2018-07-15T09:02:29.327Z,25.85
2018-07-15T09:03:29.134Z,25.81
2018-07-15T09:04:28.068Z,25.85
2018-07-15T09:05:29.181Z,25.94
2018-07-15T09:06:29.051Z,25.96
2018-07-15T09:07:29.052Z,25.86
2018-07-15T09:08:29.023Z,25.83
2018-07-15T09:09:29.020Z,25.81
2018-07-15T09:10:29.019Z,25.93
2018-07-15T09:11:29.008Z,25.96
2018-07-15T09:12:29.006Z,25.96
2018-07-15T09:13:28.976Z,25.93
2018-07-15T09:14:28.976Z,25.94
2018-07-15T09:15:27.959Z,25.90
2018-07-15T09:16:28.944Z,25.93
2018-07-15T09:17:28.989Z,25.96
2018-07-15T09:18:29.054Z,25.97
2018-07-15T09:19:28.918Z,25.97
2018-07-15T09:20:28.920Z,25.97
2018-07-15T09:21:29.009Z,25.98
2018-07-15T09:22:29.335Z,25.98
2018-07-15T09:23:28.979Z,25.93
2018-07-15T09:24:29.019Z,25.89
2018-07-15T09:25:28.974Z,25.96
2018-07-15T09:26:28.841Z,25.91
2018-07-15T09:27:28.849Z,25.96
2018-07-15T09:28:28.834Z,25.97
2018-07-15T09:29:28.810Z,25.97
2018-07-15T09:30:28.808Z,25.98
2018-07-15T09:31:27.777Z,25.94
2018-07-15T09:32:28.894Z,25.96
2018-07-15T09:33:28.825Z,25.98
2018-07-15T09:34:28.748Z,26.00
2018-07-15T09:35:28.763Z,25.97
2018-07-15T09:36:28.743Z,25.97
2018-07-15T09:37:28.843Z,26.00
2018-07-15T09:38:27.704Z,26.00
2018-07-15T09:39:28.815Z,25.96
2018-07-15T09:40:28.745Z,26.00
2018-07-15T09:41:27.803Z,26.01
2018-07-15T09:42:28.672Z,26.00
2018-07-15T09:43:28.713Z,26.08
2018-07-15T09:44:28.639Z,26.08
2018-07-15T09:45:28.625Z,26.03
2018-07-15T09:46:28.765Z,26.01
2018-07-15T09:47:28.640Z,26.11
2018-07-15T09:48:28.600Z,26.06
2018-07-15T09:49:28.590Z,26.01
2018-07-15T09:50:27.595Z,26.04
2018-07-15T09:51:28.662Z,26.08
2018-07-15T09:52:28.568Z,26.08
2018-07-15T09:53:28.556Z,26.12
2018-07-15T09:54:28.621Z,26.00
2018-07-15T09:55:28.540Z,26.04
2018-07-15T09:56:28.518Z,26.09
2018-07-15T09:57:27.500Z,26.09
2018-07-15T09:58:28.503Z,26.08
2018-07-15T09:59:28.485Z,26.09
2018-07-15T10:00:27.622Z,26.06
2018-07-15T10:01:28.595Z,26.06
2018-07-15T10:02:28.469Z,26.09
2018-07-15T10:03:27.433Z,26.04
2018-07-15T10:04:28.451Z,26.11
2018-07-15T10:05:28.517Z,26.04
2018-07-15T10:06:27.417Z,26.04
2018-07-15T10:07:28.433Z,26.08
2018-07-15T10:08:28.392Z,26.08
2018-07-15T10:09:28.383Z,26.11
2018-07-15T10:10:28.525Z,26.11
2018-07-15T10:11:28.351Z,26.12
2018-07-15T10:12:28.355Z,26.11
2018-07-15T10:13:28.333Z,26.08
2018-07-15T10:14:28.437Z,26.19
2018-07-15T10:15:28.306Z,26.16
2018-07-15T10:16:28.406Z,26.13
2018-07-15T10:17:28.387Z,26.16
2018-07-15T10:18:28.282Z,26.20
2018-07-15T10:19:28.284Z,26.16
2018-07-15T10:20:27.913Z,26.17
2018-07-15T10:21:28.244Z,26.16
2018-07-15T10:22:28.235Z,26.19
2018-07-15T10:23:28.237Z,26.21
2018-07-15T10:24:28.273Z,26.20
2018-07-15T10:25:28.229Z,26.24
2018-07-15T10:26:28.214Z,26.12
2018-07-15T10:27:27.270Z,26.23
2018-07-15T10:28:28.171Z,26.29
2018-07-15T10:29:28.159Z,26.20
2018-07-15T10:30:28.434Z,26.20
2018-07-15T10:31:28.264Z,26.16
2018-07-15T10:32:28.144Z,26.19
2018-07-15T10:33:27.198Z,26.20
2018-07-15T10:34:28.107Z,26.29
2018-07-15T10:35:28.219Z,26.21
2018-07-15T10:36:28.233Z,26.31
2018-07-15T10:37:28.170Z,26.21
2018-07-15T10:38:27.154Z,26.23
2018-07-15T10:39:28.069Z,26.32
2018-07-15T10:40:28.066Z,26.24
2018-07-15T10:41:28.042Z,26.31
2018-07-15T10:42:27.026Z,26.32
2018-07-15T10:43:28.131Z,26.28
2018-07-15T10:44:28.044Z,26.39
2018-07-15T10:45:28.097Z,26.31
2018-07-15T10:46:28.037Z,26.39
2018-07-15T10:47:27.980Z,26.35
2018-07-15T10:48:27.965Z,26.31
2018-07-15T10:49:27.953Z,26.34
2018-07-15T10:50:27.955Z,26.38
2018-07-15T10:51:27.930Z,26.41
2018-07-15T10:52:28.047Z,26.39
2018-07-15T10:53:27.904Z,26.36
2018-07-15T10:54:26.905Z,26.41
2018-07-15T10:55:27.979Z,26.38
2018-07-15T10:56:27.874Z,26.41
2018-07-15T10:57:27.999Z,26.36
2018-07-15T10:58:27.850Z,26.42
2018-07-15T10:59:27.849Z,26.39
2018-07-15T11:00:27.943Z,26.32
2018-07-15T11:01:27.826Z,26.44
2018-07-15T11:02:27.908Z,26.35
2018-07-15T11:03:27.815Z,26.44
2018-07-15T11:04:27.843Z,26.38
2018-07-15T11:05:26.799Z,26.47
2018-07-15T11:06:27.809Z,26.46
2018-07-15T11:07:27.764Z,26.47
2018-07-15T11:08:26.758Z,26.35
2018-07-15T11:09:27.750Z,26.44
2018-07-15T11:10:27.759Z,26.39
2018-07-15T11:11:26.720Z,26.46
2018-07-15T11:12:27.736Z,26.46
2018-07-15T11:13:27.712Z,26.46
2018-07-15T11:14:27.679Z,26.44
2018-07-15T11:15:27.808Z,26.46
2018-07-15T11:16:27.712Z,26.44
2018-07-15T11:17:27.775Z,26.46
2018-07-15T11:18:26.650Z,26.46
2018-07-15T11:19:27.725Z,26.50
2018-07-15T11:20:27.672Z,26.47
2018-07-15T11:21:27.614Z,26.50
2018-07-15T11:22:27.678Z,26.56
2018-07-15T11:23:27.685Z,26.49
2018-07-15T11:24:27.587Z,26.42
2018-07-15T11:25:27.564Z,26.53
2018-07-15T11:26:27.622Z,26.53
2018-07-15T11:27:27.556Z,26.56
2018-07-15T11:28:27.673Z,26.50
2018-07-15T11:29:27.552Z,26.51
2018-07-15T11:30:26.590Z,26.51
2018-07-15T11:31:27.726Z,26.53
2018-07-15T11:32:27.503Z,26.46
2018-07-15T11:33:27.488Z,26.46
2018-07-15T11:34:27.479Z,26.50
2018-07-15T11:35:27.583Z,26.51
2018-07-15T11:36:27.449Z,26.57
2018-07-15T11:37:27.566Z,26.44
2018-07-15T11:38:27.435Z,26.50
2018-07-15T11:39:26.432Z,26.60
2018-07-15T11:40:27.426Z,26.61
2018-07-15T11:41:27.482Z,26.47
2018-07-15T11:42:27.454Z,26.64
2018-07-15T11:43:27.434Z,26.65
2018-07-15T11:44:26.365Z,26.59
2018-07-15T11:45:27.369Z,26.59
2018-07-15T11:46:27.434Z,26.61
2018-07-15T11:47:27.402Z,26.60
2018-07-15T11:48:27.429Z,26.59
2018-07-15T11:49:27.311Z,26.60
2018-07-15T11:50:27.310Z,26.61
2018-07-15T11:51:27.286Z,26.60
2018-07-15T11:52:27.308Z,26.66
2018-07-15T11:53:27.267Z,26.64
2018-07-15T11:54:27.316Z,26.66
2018-07-15T11:55:27.245Z,26.60
2018-07-15T11:56:27.342Z,26.76
2018-07-15T11:57:27.292Z,26.71
2018-07-15T11:58:27.230Z,26.73
2018-07-15T11:59:26.210Z,26.69
2018-07-15T12:00:27.300Z,26.68
2018-07-15T12:01:27.219Z,26.69
2018-07-15T12:02:27.284Z,26.69
2018-07-15T12:03:27.270Z,26.71
2018-07-15T12:04:27.252Z,26.83
2018-07-15T12:05:26.144Z,26.81
2018-07-15T12:06:27.121Z,26.78
2018-07-15T12:07:27.177Z,26.79
2018-07-15T12:08:27.125Z,26.87
2018-07-15T12:09:26.117Z,26.75
2018-07-15T12:10:27.088Z,26.78
2018-07-15T12:11:27.091Z,26.78
2018-07-15T12:12:27.181Z,26.75
2018-07-15T12:13:26.063Z,26.81
2018-07-15T12:14:27.066Z,26.86
2018-07-15T12:15:27.138Z,26.88
2018-07-15T12:16:27.049Z,26.88
2018-07-15T12:17:27.024Z,26.94
2018-07-15T12:18:27.010Z,26.96
2018-07-15T12:19:26.109Z,27.01
2018-07-15T12:20:27.095Z,26.97
2018-07-15T12:21:26.963Z,26.97
2018-07-15T12:22:25.965Z,27.05
2018-07-15T12:23:26.944Z,27.02
2018-07-15T12:24:27.025Z,27.03
2018-07-15T12:25:26.932Z,27.05
2018-07-15T12:26:26.935Z,27.13
2018-07-15T12:27:26.910Z,27.06
2018-07-15T12:28:27.050Z,27.11
2018-07-15T12:29:26.883Z,27.12
2018-07-15T12:30:26.886Z,27.12
2018-07-15T12:31:26.861Z,27.15
2018-07-15T12:32:26.855Z,27.12
2018-07-15T12:33:26.836Z,27.18
2018-07-15T12:34:26.848Z,27.15
2018-07-15T12:35:25.822Z,27.27
2018-07-15T12:36:26.820Z,27.25
2018-07-15T12:37:26.810Z,27.27
2018-07-15T12:38:26.799Z,27.31
2018-07-15T12:39:26.807Z,27.27
2018-07-15T12:40:25.759Z,27.40
2018-07-15T12:41:26.764Z,27.34
2018-07-15T12:42:26.744Z,27.38
2018-07-15T12:43:26.807Z,27.50
2018-07-15T12:44:26.755Z,27.42
2018-07-15T12:45:26.712Z,27.42
2018-07-15T12:46:26.793Z,27.45
2018-07-15T12:47:25.719Z,27.63
2018-07-15T12:48:26.132Z,27.55
2018-07-15T12:49:26.670Z,27.61
2018-07-15T12:50:26.744Z,27.61
2018-07-15T12:51:27.413Z,27.63
2018-07-15T12:52:26.863Z,27.71
2018-07-15T12:53:25.628Z,27.68